createdAt,value
2022-09-06T00:01:26.721Z,13.13
2022-09-06T00:03:57.119Z,13.09
2022-09-06T00:06:27.289Z,13.09
2022-09-06T00:08:57.546Z,13.09
2022-09-06T00:11:28.165Z,13.10
2022-09-06T00:13:58.489Z,13.04
2022-09-06T00:16:30.601Z,13.04
2022-09-06T00:19:01.060Z,13.02
2022-09-06T00:21:32.312Z,13.02
2022-09-06T00:24:02.928Z,12.91
2022-09-06T00:26:33.526Z,12.81
2022-09-06T00:29:03.689Z,12.70
2022-09-06T00:31:34.429Z,12.58
2022-09-06T00:34:04.833Z,12.58
2022-09-06T00:36:35.876Z,12.42
2022-09-06T00:39:06.162Z,12.52
2022-09-06T00:41:36.595Z,12.24
2022-09-06T00:44:07.187Z,12.23
2022-09-06T00:46:59.690Z,12.17
2022-09-06T00:49:32.852Z,12.15
2022-09-06T00:52:06.359Z,12.13
2022-09-06T00:54:37.353Z,12.13
2022-09-06T00:57:08.295Z,12.14
2022-09-06T00:59:41.634Z,12.14
2022-09-06T01:02:12.423Z,12.18
2022-09-06T01:04:45.403Z,12.22
2022-09-06T01:07:27.798Z,12.22
2022-09-06T01:10:24.774Z,12.23
2022-09-06T01:13:22.195Z,12.23
2022-09-06T01:16:10.476Z,12.17
2022-09-06T01:19:01.722Z,12.17
2022-09-06T01:21:43.807Z,12.24
2022-09-06T01:24:35.062Z,12.35
2022-09-06T01:27:28.695Z,12.33
2022-09-06T01:30:10.558Z,12.33
2022-09-06T01:35:53.927Z,12.29
2022-09-06T01:38:24.363Z,12.32
2022-09-06T01:40:55.214Z,12.31
2022-09-06T01:46:17.567Z,12.35
2022-09-06T01:48:56.369Z,12.17
2022-09-06T01:51:50.678Z,12.05
2022-09-06T01:58:07.543Z,11.80
2022-09-06T02:00:46.801Z,11.75
2022-09-06T02:03:25.593Z,11.75
2022-09-06T02:05:58.877Z,11.65
2022-09-06T02:08:35.261Z,11.68
2022-09-06T02:11:08.393Z,11.60
2022-09-06T02:13:59.750Z,11.63
2022-09-06T02:16:32.133Z,11.63
2022-09-06T02:19:10.888Z,11.61
2022-09-06T02:21:44.413Z,11.57
2022-09-06T02:24:17.975Z,11.44
2022-09-06T02:26:49.413Z,11.38
2022-09-06T02:29:20.101Z,11.28
2022-09-06T02:31:53.250Z,11.28
2022-09-06T02:34:24.368Z,11.19
2022-09-06T02:36:56.294Z,11.14
2022-09-06T02:39:26.818Z,11.14
2022-09-06T02:41:58.036Z,11.19
2022-09-06T02:44:28.236Z,11.21
2022-09-06T02:46:58.397Z,11.14
2022-09-06T02:49:28.545Z,11.15
2022-09-06T02:51:59.092Z,11.20
2022-09-06T02:54:29.278Z,11.27
2022-09-06T02:56:59.412Z,11.24
2022-09-06T02:59:29.789Z,11.24
2022-09-06T03:02:00.310Z,11.24
2022-09-06T03:04:30.564Z,11.31
2022-09-06T03:07:01.647Z,11.31
2022-09-06T03:09:32.033Z,11.27
2022-09-06T03:12:02.535Z,11.21
2022-09-06T03:14:33.320Z,11.18
2022-09-06T03:17:04.621Z,11.20
2022-09-06T03:19:35.761Z,11.20
2022-09-06T03:22:06.372Z,11.17
2022-09-06T03:24:36.607Z,11.16
2022-09-06T03:27:07.028Z,11.21
2022-09-06T03:29:40.005Z,11.18
2022-09-06T03:32:10.448Z,11.16
2022-09-06T03:34:40.866Z,11.10
2022-09-06T03:37:11.515Z,11.15
2022-09-06T03:39:42.215Z,11.15
2022-09-06T03:42:12.805Z,11.18
2022-09-06T03:44:44.409Z,11.16
2022-09-06T03:47:18.859Z,11.22
2022-09-06T03:49:47.923Z,11.23
2022-09-06T03:52:18.608Z,11.25
2022-09-06T03:54:48.957Z,11.21
2022-09-06T03:57:19.204Z,11.32
2022-09-06T03:59:49.355Z,11.37
2022-09-06T04:02:21.193Z,11.32
2022-09-06T04:04:52.046Z,11.31
2022-09-06T04:07:23.195Z,11.35
2022-09-06T04:09:54.015Z,11.39
2022-09-06T04:12:24.390Z,11.48
2022-09-06T04:14:55.371Z,11.47
2022-09-06T04:17:27.768Z,11.50
2022-09-06T04:19:58.632Z,11.40
2022-09-06T04:22:28.886Z,11.38
2022-09-06T04:25:00.179Z,11.63
2022-09-06T04:27:30.829Z,11.65
2022-09-06T04:30:01.244Z,11.71
2022-09-06T04:32:32.070Z,11.73
2022-09-06T04:35:02.387Z,11.84
2022-09-06T04:37:32.907Z,11.85
2022-09-06T04:40:03.994Z,11.90
2022-09-06T04:42:34.588Z,11.90
2022-09-06T04:45:05.298Z,11.98
2022-09-06T04:47:35.993Z,11.98
2022-09-06T04:50:06.673Z,12.05
2022-09-06T04:52:37.508Z,12.16
2022-09-06T04:55:08.160Z,12.15
2022-09-06T04:57:42.521Z,12.23
2022-09-06T05:00:11.391Z,12.23
2022-09-06T05:02:41.807Z,12.46
2022-09-06T05:05:12.256Z,12.56
2022-09-06T05:07:42.623Z,12.56
2022-09-06T05:10:14.522Z,12.69
2022-09-06T05:12:50.814Z,12.87
2022-09-06T05:15:41.992Z,12.95
2022-09-06T05:18:16.042Z,12.95
2022-09-06T05:20:46.519Z,13.15
2022-09-06T05:23:16.805Z,13.39
2022-09-06T05:25:47.080Z,13.29
2022-09-06T05:28:18.366Z,13.29
2022-09-06T05:30:48.829Z,13.52
2022-09-06T05:33:42.356Z,13.74
2022-09-06T05:36:12.492Z,13.74
2022-09-06T05:38:43.660Z,14.59
2022-09-06T05:41:13.940Z,14.59
2022-09-06T05:43:46.182Z,15.69
2022-09-06T05:46:17.756Z,15.69
2022-09-06T05:48:54.080Z,16.22
2022-09-06T05:51:24.756Z,16.22
2022-09-06T05:53:55.040Z,16.95
2022-09-06T05:56:25.658Z,17.18
2022-09-06T05:58:58.147Z,17.58
2022-09-06T06:01:30.720Z,17.58
2022-09-06T06:04:03.265Z,18.32
2022-09-06T06:06:35.203Z,18.48
2022-09-06T06:09:06.471Z,18.48
2022-09-06T06:11:37.115Z,19.20
2022-09-06T06:14:08.534Z,19.20
2022-09-06T06:16:39.050Z,18.97
2022-09-06T06:19:09.909Z,19.85
2022-09-06T06:21:40.344Z,20.40
2022-09-06T06:24:10.665Z,20.34
2022-09-06T06:26:41.622Z,20.48
2022-09-06T06:29:12.185Z,20.61
2022-09-06T06:31:42.812Z,21.01
2022-09-06T06:34:13.031Z,21.23
2022-09-06T06:36:43.256Z,21.23
2022-09-06T06:39:13.976Z,21.23
2022-09-06T06:41:44.321Z,21.23
2022-09-06T06:44:15.409Z,20.75
2022-09-06T06:46:45.865Z,21.78
2022-09-06T06:49:16.281Z,21.78
2022-09-06T06:51:46.637Z,21.48
2022-09-06T06:54:16.921Z,22.09
2022-09-06T06:56:47.340Z,22.09
2022-09-06T06:59:17.986Z,21.96
2022-09-06T07:01:48.483Z,22.55
2022-09-06T07:04:18.927Z,22.55
2022-09-06T07:09:26.077Z,22.90
2022-09-06T07:11:56.530Z,22.90
2022-09-06T07:14:28.097Z,22.84
2022-09-06T07:16:58.735Z,23.61
2022-09-06T07:22:04.516Z,23.34
2022-09-06T07:24:33.198Z,23.90
2022-09-06T07:29:35.730Z,23.07
2022-09-06T07:32:13.236Z,23.61
2022-09-06T07:34:37.942Z,24.85
2022-09-06T07:37:08.457Z,23.61
2022-09-06T07:39:39.088Z,23.61
2022-09-06T07:42:10.302Z,23.80
2022-09-06T07:44:40.584Z,23.80
2022-09-06T07:54:48.484Z,23.80
2022-09-06T07:57:18.703Z,22.68
2022-09-06T07:59:49.851Z,22.68
2022-09-06T08:02:20.570Z,22.10
2022-09-06T08:04:51.801Z,22.81
2022-09-06T08:09:54.002Z,24.02
2022-09-06T08:12:24.343Z,22.33
2022-09-06T08:14:55.127Z,23.10
2022-09-06T08:17:25.354Z,21.67
2022-09-06T08:19:56.113Z,21.91
2022-09-06T08:22:26.378Z,21.91
2022-09-06T08:24:56.672Z,21.58
2022-09-06T08:27:27.041Z,21.58
2022-09-06T08:29:57.229Z,21.94
2022-09-06T08:32:27.501Z,21.94
2022-09-06T08:34:58.237Z,23.26
2022-09-06T08:37:28.591Z,24.02
2022-09-06T08:39:59.204Z,24.02
2022-09-06T08:42:30.543Z,24.15
2022-09-06T08:45:02.315Z,22.60
2022-09-06T08:47:32.981Z,22.60
2022-09-06T08:50:05.996Z,20.57
2022-09-06T08:53:16.722Z,20.57
2022-09-06T08:55:47.264Z,19.74
2022-09-06T08:58:23.194Z,21.49
2022-09-06T09:00:56.539Z,21.09
2022-09-06T09:03:38.364Z,21.09
2022-09-06T09:06:09.909Z,20.23
2022-09-06T09:09:01.124Z,20.04
2022-09-06T09:11:32.058Z,20.04
2022-09-06T09:14:23.199Z,20.31
2022-09-06T09:16:56.545Z,20.17
2022-09-06T09:19:27.101Z,20.17
2022-09-06T09:21:57.530Z,22.08
2022-09-06T09:24:28.040Z,21.44
2022-09-06T09:27:09.884Z,22.07
2022-09-06T09:32:38.483Z,22.23
2022-09-06T09:35:35.915Z,21.43
2022-09-06T09:38:15.650Z,21.00
2022-09-06T09:40:54.956Z,22.17
2022-09-06T09:43:33.663Z,22.17
2022-09-06T09:46:12.915Z,23.19
2022-09-06T09:48:49.436Z,23.19
2022-09-06T09:51:27.366Z,23.63
2022-09-06T09:53:59.061Z,23.11
2022-09-06T09:56:43.911Z,24.13
2022-09-06T09:59:25.811Z,25.03
2022-09-06T10:02:04.592Z,25.03
2022-09-06T10:07:18.057Z,23.50
2022-09-06T10:10:06.599Z,23.50
2022-09-06T10:12:39.800Z,23.58
2022-09-06T10:15:12.741Z,23.60
2022-09-06T10:17:50.881Z,24.28
2022-09-06T10:20:24.510Z,25.22
2022-09-06T10:23:05.657Z,25.22
2022-09-06T10:25:49.001Z,25.78
2022-09-06T10:28:38.815Z,25.78
2022-09-06T10:31:26.914Z,24.03
2022-09-06T10:34:12.084Z,23.39
2022-09-06T10:36:45.674Z,22.70
2022-09-06T10:39:18.899Z,21.55
2022-09-06T10:42:04.968Z,21.55
2022-09-06T10:44:38.340Z,22.05
2022-09-06T10:47:35.940Z,22.41
2022-09-06T10:50:07.321Z,22.41
2022-09-06T10:52:40.586Z,24.27
2022-09-06T10:55:13.827Z,23.99
2022-09-06T11:00:19.826Z,23.88
2022-09-06T11:08:47.189Z,23.00
2022-09-06T11:11:07.682Z,22.79
2022-09-06T11:13:39.279Z,24.09
2022-09-06T11:16:27.971Z,24.09
2022-09-06T11:19:12.950Z,24.34
2022-09-06T11:21:58.114Z,24.34
2022-09-06T11:24:37.027Z,21.21
2022-09-06T11:27:32.895Z,21.21
2022-09-06T11:30:05.092Z,20.65
2022-09-06T11:32:48.834Z,20.65
2022-09-06T11:35:31.125Z,22.39
2022-09-06T11:38:19.586Z,23.05
2022-09-06T11:41:06.337Z,23.05
2022-09-06T11:43:47.471Z,22.50
2022-09-06T11:46:35.682Z,22.38
2022-09-06T11:49:08.428Z,22.38
2022-09-06T11:51:45.101Z,21.55
2022-09-06T11:54:26.547Z,20.54
2022-09-06T11:57:14.902Z,20.37
2022-09-06T11:59:51.376Z,20.37
2022-09-06T12:02:37.023Z,19.66
2022-09-06T12:05:09.877Z,19.65
2022-09-06T12:08:13.148Z,19.79
2022-09-06T12:10:58.712Z,20.59
2022-09-06T12:13:44.711Z,20.59
2022-09-06T12:16:17.830Z,21.35
2022-09-06T12:18:51.420Z,21.57
2022-09-06T12:21:42.718Z,21.57
2022-09-06T12:24:36.129Z,21.39
2022-09-06T12:27:18.517Z,21.39
2022-09-06T12:29:51.561Z,22.92
2022-09-06T12:32:27.919Z,23.34
2022-09-06T12:37:37.842Z,20.85
2022-09-06T12:40:09.475Z,20.85
2022-09-06T12:42:40.839Z,22.10
2022-09-06T12:45:11.994Z,22.10
2022-09-06T12:47:42.780Z,23.68
2022-09-06T12:50:22.311Z,23.68
2022-09-06T12:52:55.302Z,22.49
2022-09-06T12:55:34.734Z,22.50
2022-09-06T12:58:11.208Z,21.96
2022-09-06T13:00:49.821Z,22.97
2022-09-06T13:03:41.086Z,22.76
2022-09-06T13:06:14.365Z,22.76
2022-09-06T13:08:50.965Z,22.63
2022-09-06T13:11:35.061Z,22.63
2022-09-06T13:14:14.797Z,23.14
2022-09-06T13:16:47.655Z,22.75
2022-09-06T13:19:20.823Z,21.86
2022-09-06T13:21:52.878Z,21.84
2022-09-06T13:24:38.039Z,21.84
2022-09-06T13:27:25.948Z,21.32
2022-09-06T13:29:58.562Z,21.75
2022-09-06T13:32:31.026Z,21.68
2022-09-06T13:35:02.623Z,20.49
2022-09-06T13:37:34.489Z,20.22
2022-09-06T13:40:24.366Z,20.22
2022-09-06T13:42:57.608Z,19.83
2022-09-06T13:45:29.974Z,22.60
2022-09-06T13:48:19.347Z,23.18
2022-09-06T13:50:34.339Z,23.27
2022-09-06T13:53:04.666Z,23.43
2022-09-06T13:55:35.642Z,22.60
2022-09-06T13:58:05.960Z,22.60
2022-09-06T14:00:36.975Z,21.02
2022-09-06T14:03:11.269Z,21.14
2022-09-06T14:05:42.858Z,21.67
2022-09-06T14:08:13.260Z,21.33
2022-09-06T14:10:45.029Z,20.93
2022-09-06T14:13:17.304Z,19.30
2022-09-06T14:15:50.241Z,18.84
2022-09-06T14:18:20.748Z,18.84
2022-09-06T14:20:55.960Z,18.82
2022-09-06T14:23:26.969Z,19.45
2022-09-06T14:26:01.898Z,20.08
2022-09-06T14:28:34.267Z,19.92
2022-09-06T14:31:17.037Z,19.69
2022-09-06T14:33:47.872Z,19.42
2022-09-06T14:36:21.511Z,19.42
2022-09-06T14:38:53.209Z,20.08
2022-09-06T14:41:23.707Z,20.17
2022-09-06T14:43:56.283Z,20.36
2022-09-06T14:46:29.025Z,19.30
2022-09-06T14:49:09.815Z,18.89
2022-09-06T14:51:40.448Z,18.80
2022-09-06T14:54:12.958Z,18.40
2022-09-06T14:56:44.354Z,18.01
2022-09-06T14:59:15.020Z,17.39
2022-09-06T15:01:46.650Z,17.22
2022-09-06T15:04:17.108Z,17.22
2022-09-06T15:06:47.994Z,17.01
2022-09-06T15:09:20.217Z,17.01
2022-09-06T15:11:52.231Z,16.86
2022-09-06T15:14:25.557Z,16.63
2022-09-06T15:16:58.496Z,16.38
2022-09-06T15:19:30.561Z,16.38
2022-09-06T15:22:01.434Z,16.33
2022-09-06T15:24:33.211Z,16.08
2022-09-06T15:27:03.591Z,16.22
2022-09-06T15:29:34.120Z,16.03
2022-09-06T15:32:04.689Z,16.03
2022-09-06T15:34:35.518Z,16.11
2022-09-06T15:37:06.009Z,16.07
2022-09-06T15:39:36.501Z,16.05
2022-09-06T15:42:07.227Z,15.89
2022-09-06T15:44:38.302Z,15.87
2022-09-06T15:47:08.867Z,15.87
2022-09-06T15:49:39.804Z,15.94
2022-09-06T15:52:10.187Z,15.67
2022-09-06T15:54:40.587Z,15.50
2022-09-06T15:57:11.463Z,15.56
2022-09-06T15:59:42.320Z,15.56
2022-09-06T16:02:14.559Z,15.59
2022-09-06T16:04:46.500Z,15.62
2022-09-06T16:07:17.671Z,15.56
2022-09-06T16:09:48.181Z,15.56
2022-09-06T16:12:19.261Z,15.34
2022-09-06T16:14:52.746Z,15.29
2022-09-06T16:17:22.861Z,15.28
2022-09-06T16:19:53.416Z,15.27
2022-09-06T16:22:27.214Z,15.17
2022-09-06T16:24:57.472Z,15.17
2022-09-06T16:27:27.914Z,15.02
2022-09-06T16:29:58.559Z,14.99
2022-09-06T16:32:29.006Z,14.86
2022-09-06T16:35:00.505Z,14.86
2022-09-06T16:37:32.830Z,14.86
2022-09-06T16:40:03.142Z,14.80
2022-09-06T16:42:33.827Z,14.88
2022-09-06T16:45:04.462Z,14.81
2022-09-06T16:47:36.750Z,14.81
2022-09-06T16:50:07.824Z,14.66
2022-09-06T16:52:41.207Z,14.70
2022-09-06T16:55:11.636Z,14.70
2022-09-06T16:57:42.042Z,14.54
2022-09-06T17:00:13.178Z,14.54
2022-09-06T17:02:47.091Z,14.52
2022-09-06T17:05:16.501Z,14.56
2022-09-06T17:07:48.486Z,14.56
2022-09-06T17:10:19.512Z,14.46
2022-09-06T17:12:50.011Z,14.40
2022-09-06T17:15:20.865Z,14.50
2022-09-06T17:17:53.094Z,14.50
2022-09-06T17:20:23.376Z,14.24
2022-09-06T17:22:53.861Z,14.45
2022-09-06T17:25:24.466Z,14.37
2022-09-06T17:27:54.918Z,14.11
2022-09-06T17:30:25.399Z,14.27
2022-09-06T17:32:55.926Z,14.34
2022-09-06T17:35:26.493Z,14.34
2022-09-06T17:37:56.955Z,14.24
2022-09-06T17:40:27.506Z,14.24
2022-09-06T17:42:58.279Z,14.21
2022-09-06T17:45:29.126Z,14.14
2022-09-06T17:47:59.823Z,14.13
2022-09-06T17:50:33.922Z,14.05
2022-09-06T17:53:04.365Z,13.97
2022-09-06T17:55:39.834Z,13.94
2022-09-06T17:58:10.179Z,13.82
2022-09-06T18:00:41.557Z,13.82
2022-09-06T18:03:20.441Z,13.81
2022-09-06T18:05:50.820Z,13.80
2022-09-06T18:08:23.871Z,13.80
2022-09-06T18:10:54.440Z,13.78
2022-09-06T18:13:33.530Z,13.71
2022-09-06T18:16:05.248Z,13.76
2022-09-06T18:18:37.061Z,13.74
2022-09-06T18:21:07.906Z,13.70
2022-09-06T18:23:40.606Z,13.68
2022-09-06T18:26:11.546Z,13.65
2022-09-06T18:28:46.523Z,13.65
2022-09-06T18:31:19.373Z,13.59
2022-09-06T18:33:49.899Z,13.59
2022-09-06T18:36:20.976Z,13.58
2022-09-06T18:38:54.041Z,13.58
2022-09-06T18:41:24.522Z,13.47
2022-09-06T18:43:56.088Z,13.49
2022-09-06T18:46:30.491Z,13.32
2022-09-06T18:49:01.556Z,13.25
2022-09-06T18:51:42.377Z,13.25
2022-09-06T18:54:12.893Z,13.23
2022-09-06T18:56:43.681Z,13.23
2022-09-06T18:59:14.716Z,13.17
2022-09-06T19:01:45.283Z,13.14
2022-09-06T19:04:16.760Z,13.15
2022-09-06T19:06:48.645Z,13.15
2022-09-06T19:09:19.567Z,13.08
2022-09-06T19:11:50.665Z,13.10
2022-09-06T19:14:23.584Z,13.07
2022-09-06T19:16:54.121Z,13.07
2022-09-06T19:19:24.461Z,13.17
2022-09-06T19:21:54.899Z,13.17
2022-09-06T19:24:25.342Z,13.15
2022-09-06T19:26:56.070Z,13.15
2022-09-06T19:29:26.411Z,13.07
2022-09-06T19:31:57.364Z,12.96
2022-09-06T19:34:27.861Z,12.91
2022-09-06T19:36:58.212Z,12.81
2022-09-06T19:39:32.253Z,12.73
2022-09-06T19:42:00.834Z,12.68
2022-09-06T19:44:31.708Z,12.49
2022-09-06T19:47:02.197Z,12.42
2022-09-06T19:49:32.567Z,12.42
2022-09-06T19:52:03.209Z,12.34
2022-09-06T19:54:33.893Z,12.32
2022-09-06T19:57:04.940Z,12.21
2022-09-06T19:59:35.599Z,12.22
2022-09-06T20:02:06.546Z,12.12
2022-09-06T20:04:37.130Z,12.07
2022-09-06T20:07:07.918Z,12.01
2022-09-06T20:09:38.634Z,11.99
2022-09-06T20:12:09.950Z,11.89
2022-09-06T20:14:40.580Z,11.81
2022-09-06T20:17:32.290Z,11.82
2022-09-06T20:19:43.280Z,11.82
2022-09-06T20:22:14.090Z,11.77
2022-09-06T20:24:44.493Z,11.76
2022-09-06T20:27:14.735Z,11.76
2022-09-06T20:29:45.399Z,11.73
2022-09-06T20:32:16.050Z,11.74
2022-09-06T20:34:47.092Z,11.74
2022-09-06T20:37:17.520Z,11.72
2022-09-06T20:39:47.843Z,11.70
2022-09-06T20:42:18.233Z,11.68
2022-09-06T20:44:48.892Z,11.74
2022-09-06T20:47:19.504Z,11.74
2022-09-06T20:49:49.869Z,11.68
2022-09-06T20:52:20.443Z,11.68
2022-09-06T20:54:50.877Z,11.67
2022-09-06T20:57:21.357Z,11.67
2022-09-06T20:59:51.824Z,11.63
2022-09-06T21:02:22.254Z,11.59
2022-09-06T21:04:52.612Z,11.59
2022-09-06T21:07:22.951Z,11.61
2022-09-06T21:09:53.367Z,11.61
2022-09-06T21:12:23.831Z,11.60
2022-09-06T21:14:55.260Z,11.60
2022-09-06T21:17:25.960Z,11.53
2022-09-06T21:19:56.219Z,11.53
2022-09-06T21:22:26.670Z,11.42
2022-09-06T21:24:57.282Z,11.44
2022-09-06T21:27:27.629Z,11.44
2022-09-06T21:29:58.021Z,11.41
2022-09-06T21:32:28.349Z,11.41
2022-09-06T21:34:58.718Z,11.38
2022-09-06T21:37:29.030Z,11.31
2022-09-06T21:39:59.495Z,11.26
2022-09-06T21:42:30.316Z,11.27
2022-09-06T21:45:00.736Z,11.25
2022-09-06T21:47:31.074Z,11.22
2022-09-06T21:50:01.340Z,11.18
2022-09-06T21:52:31.979Z,11.18
2022-09-06T21:55:02.883Z,11.15
2022-09-06T21:57:33.642Z,11.15
2022-09-06T22:00:05.990Z,11.11
2022-09-06T22:02:36.886Z,11.11
2022-09-06T22:05:07.503Z,11.10
2022-09-06T22:07:38.534Z,11.01
2022-09-06T22:10:09.067Z,10.95
2022-09-06T22:12:41.361Z,10.96
2022-09-06T22:15:11.675Z,10.96
2022-09-06T22:17:42.308Z,10.92
2022-09-06T22:20:12.768Z,10.88
2022-09-06T22:22:43.134Z,10.92
2022-09-06T22:25:14.237Z,10.92
2022-09-06T22:27:44.948Z,10.89
2022-09-06T22:30:15.690Z,10.85
2022-09-06T22:32:45.943Z,10.86
2022-09-06T22:35:35.529Z,10.87
2022-09-06T22:38:05.913Z,10.76
2022-09-06T22:40:36.354Z,10.77
2022-09-06T22:43:06.951Z,10.77
2022-09-06T22:45:37.384Z,10.71
2022-09-06T22:48:07.811Z,10.73
2022-09-06T22:50:38.428Z,10.69
2022-09-06T22:53:09.902Z,10.61
2022-09-06T22:55:40.571Z,10.55
2022-09-06T22:58:11.092Z,10.56
2022-09-06T23:00:41.717Z,10.56
2022-09-06T23:03:13.296Z,10.45
2022-09-06T23:05:43.882Z,10.45
2022-09-06T23:08:15.721Z,10.42
2022-09-06T23:10:46.316Z,10.39
2022-09-06T23:13:17.129Z,10.22
2022-09-06T23:15:47.939Z,10.17
2022-09-06T23:18:18.387Z,10.08
2022-09-06T23:20:48.661Z,10.08
2022-09-06T23:23:19.100Z,10.11
2022-09-06T23:25:49.577Z,10.14
2022-09-06T23:28:19.990Z,10.15
2022-09-06T23:30:51.474Z,10.05
2022-09-06T23:33:21.884Z,10.06
2022-09-06T23:35:54.688Z,10.06
2022-09-06T23:38:25.083Z,10.10
2022-09-06T23:40:55.499Z,10.09
2022-09-06T23:43:25.868Z,10.15
2022-09-06T23:45:56.190Z,10.27
2022-09-06T23:48:26.572Z,10.08
2022-09-06T23:50:56.857Z,10.05
2022-09-06T23:53:27.453Z,10.15
2022-09-06T23:55:58.158Z,10.07
2022-09-06T23:58:28.534Z,9.97
